sensor_id;sensor_type;location;lat;lon;timestamp;pressure;altitude;pressure_sealevel;temperature;humidity
61039;BME280;46919;45.816;3.104;2022-12-18T00:01:37;98435.59;;;-5.44;100.00
61039;BME280;46919;45.816;3.104;2022-12-18T00:04:04;98416.22;;;-5.43;100.00
61039;BME280;46919;45.816;3.104;2022-12-18T00:06:31;98414.31;;;-5.41;100.00
61039;BME280;46919;45.816;3.104;2022-12-18T00:08:58;98415.06;;;-5.39;100.00
61039;BME280;46919;45.816;3.104;2022-12-18T00:11:26;98409.06;;;-5.41;100.00
61039;BME280;46919;45.816;3.104;2022-12-18T00:13:54;98405.91;;;-5.46;100.00
61039;BME280;46919;45.816;3.104;2022-12-18T00:16:21;98407.44;;;-5.55;100.00
61039;BME280;46919;45.816;3.104;2022-12-18T00:18:48;98403.44;;;-5.60;100.00
61039;BME280;46919;45.816;3.104;2022-12-18T00:21:14;98407.06;;;-5.74;100.00
61039;BME280;46919;45.816;3.104;2022-12-18T00:23:42;98407.25;;;-5.77;100.00
61039;BME280;46919;45.816;3.104;2022-12-18T00:26:19;98401.38;;;-5.81;100.00
61039;BME280;46919;45.816;3.104;2022-12-18T00:28:45;98401.38;;;-5.81;100.00
61039;BME280;46919;45.816;3.104;2022-12-18T00:31:14;98402.66;;;-5.74;100.00
61039;BME280;46919;45.816;3.104;2022-12-18T00:33:40;98399.25;;;-5.76;100.00
61039;BME280;46919;45.816;3.104;2022-12-18T00:36:14;98391.06;;;-5.84;100.00
61039;BME280;46919;45.816;3.104;2022-12-18T00:38:41;98395.28;;;-5.82;100.00
61039;BME280;46919;45.816;3.104;2022-12-18T00:41:07;98395.50;;;-5.85;100.00
61039;BME280;46919;45.816;3.104;2022-12-18T00:43:33;98394.03;;;-5.89;100.00
61039;BME280;46919;45.816;3.104;2022-12-18T00:45:59;98386.19;;;-6.02;100.00
61039;BME280;46919;45.816;3.104;2022-12-18T00:48:25;98388.00;;;-6.15;100.00
61039;BME280;46919;45.816;3.104;2022-12-18T00:50:50;98394.00;;;-6.13;100.00
61039;BME280;46919;45.816;3.104;2022-12-18T00:53:16;98388.84;;;-6.14;100.00
61039;BME280;46919;45.816;3.104;2022-12-18T00:55:42;98389.88;;;-6.17;100.00
61039;BME280;46919;45.816;3.104;2022-12-18T00:58:09;98399.19;;;-6.24;100.00
61039;BME280;46919;45.816;3.104;2022-12-18T01:00:35;98396.13;;;-6.31;100.00
61039;BME280;46919;45.816;3.104;2022-12-18T01:03:00;98399.59;;;-6.30;100.00
61039;BME280;46919;45.816;3.104;2022-12-18T01:05:26;98401.28;;;-6.29;100.00
61039;BME280;46919;45.816;3.104;2022-12-18T01:07:52;98414.09;;;-6.38;100.00
61039;BME280;46919;45.816;3.104;2022-12-18T01:10:17;98401.72;;;-6.48;100.00
61039;BME280;46919;45.816;3.104;2022-12-18T01:12:43;98409.91;;;-6.53;100.00
61039;BME280;46919;45.816;3.104;2022-12-18T01:15:10;98412.53;;;-6.66;100.00
61039;BME280;46919;45.816;3.104;2022-12-18T01:17:36;98415.16;;;-6.79;100.00
61039;BME280;46919;45.816;3.104;2022-12-18T01:20:02;98414.69;;;-6.85;100.00
61039;BME280;46919;45.816;3.104;2022-12-18T01:22:28;98419.91;;;-6.98;100.00
61039;BME280;46919;45.816;3.104;2022-12-18T01:24:53;98421.28;;;-7.05;100.00
61039;BME280;46919;45.816;3.104;2022-12-18T01:27:18;98419.78;;;-7.10;100.00
61039;BME280;46919;45.816;3.104;2022-12-18T01:29:44;98429.88;;;-7.16;100.00
61039;BME280;46919;45.816;3.104;2022-12-18T01:32:09;98425.31;;;-7.27;100.00
61039;BME280;46919;45.816;3.104;2022-12-18T01:34:36;98429.56;;;-7.39;100.00
61039;BME280;46919;45.816;3.104;2022-12-18T01:37:05;98437.75;;;-7.43;100.00
61039;BME280;46919;45.816;3.104;2022-12-18T01:39:31;98438.69;;;-7.44;100.00
61039;BME280;46919;45.816;3.104;2022-12-18T01:41:58;98436.25;;;-7.48;100.00
61039;BME280;46919;45.816;3.104;2022-12-18T01:47:38;98435.06;;;-7.56;100.00
61039;BME280;46919;45.816;3.104;2022-12-18T01:50:11;98434.41;;;-7.60;100.00
61039;BME280;46919;45.816;3.104;2022-12-18T01:52:41;98433.38;;;-7.57;100.00
61039;BME280;46919;45.816;3.104;2022-12-18T01:55:08;98440.50;;;-7.59;100.00
61039;BME280;46919;45.816;3.104;2022-12-18T01:57:34;98434.78;;;-7.66;100.00
61039;BME280;46919;45.816;3.104;2022-12-18T02:00:04;98440.13;;;-7.68;100.00
61039;BME280;46919;45.816;3.104;2022-12-18T02:02:30;98441.38;;;-7.73;100.00
61039;BME280;46919;45.816;3.104;2022-12-18T02:04:55;98436.69;;;-7.83;100.00
61039;BME280;46919;45.816;3.104;2022-12-18T02:08:02;98441.00;;;-7.81;100.00
61039;BME280;46919;45.816;3.104;2022-12-18T02:10:41;98456.84;;;-7.83;100.00
61039;BME280;46919;45.816;3.104;2022-12-18T02:13:13;98445.13;;;-7.92;100.00
61039;BME280;46919;45.816;3.104;2022-12-18T02:15:46;98464.25;;;-7.90;100.00
61039;BME280;46919;45.816;3.104;2022-12-18T02:18:22;98473.25;;;-7.94;100.00
61039;BME280;46919;45.816;3.104;2022-12-18T02:20:58;98463.88;;;-7.98;100.00
61039;BME280;46919;45.816;3.104;2022-12-18T02:26:16;98476.53;;;-8.05;100.00
61039;BME280;46919;45.816;3.104;2022-12-18T02:28:56;98471.09;;;-8.16;100.00
61039;BME280;46919;45.816;3.104;2022-12-18T02:31:27;98474.91;;;-8.22;100.00
61039;BME280;46919;45.816;3.104;2022-12-18T02:33:55;98472.47;;;-8.25;100.00
61039;BME280;46919;45.816;3.104;2022-12-18T02:36:23;98477.16;;;-8.30;100.00
61039;BME280;46919;45.816;3.104;2022-12-18T02:38:50;98482.66;;;-8.34;100.00
61039;BME280;46919;45.816;3.104;2022-12-18T02:41:18;98478.47;;;-8.37;100.00
61039;BME280;46919;45.816;3.104;2022-12-18T02:43:48;98481.66;;;-8.32;100.00
61039;BME280;46919;45.816;3.104;2022-12-18T02:48:49;98487.66;;;-8.44;100.00
61039;BME280;46919;45.816;3.104;2022-12-18T02:51:25;98480.16;;;-8.50;100.00
61039;BME280;46919;45.816;3.104;2022-12-18T02:54:55;98482.69;;;-8.49;100.00
61039;BME280;46919;45.816;3.104;2022-12-18T02:56:56;98481.94;;;-8.51;100.00
61039;BME280;46919;45.816;3.104;2022-12-18T02:59:49;98488.19;;;-8.53;100.00
61039;BME280;46919;45.816;3.104;2022-12-18T03:02:22;98482.19;;;-8.56;100.00
61039;BME280;46919;45.816;3.104;2022-12-18T03:05:16;98477.31;;;-8.62;100.00
61039;BME280;46919;45.816;3.104;2022-12-18T03:07:48;98474.69;;;-8.62;100.00
61039;BME280;46919;45.816;3.104;2022-12-18T03:10:19;98477.41;;;-8.63;100.00
61039;BME280;46919;45.816;3.104;2022-12-18T03:12:54;98475.63;;;-8.63;100.00
61039;BME280;46919;45.816;3.104;2022-12-18T03:15:28;98479.66;;;-8.57;100.00
61039;BME280;46919;45.816;3.104;2022-12-18T03:18:09;98478.53;;;-8.67;100.00
61039;BME280;46919;45.816;3.104;2022-12-18T03:20:37;98471.50;;;-8.67;100.00
61039;BME280;46919;45.816;3.104;2022-12-18T03:23:11;98476.19;;;-8.72;100.00
61039;BME280;46919;45.816;3.104;2022-12-18T03:25:40;98464.94;;;-8.74;100.00
61039;BME280;46919;45.816;3.104;2022-12-18T03:28:19;98464.09;;;-8.75;100.00
61039;BME280;46919;45.816;3.104;2022-12-18T03:30:47;98459.88;;;-8.77;100.00
61039;BME280;46919;45.816;3.104;2022-12-18T03:33:16;98448.94;;;-8.69;100.00
61039;BME280;46919;45.816;3.104;2022-12-18T03:35:45;98458.41;;;-8.67;100.00
61039;BME280;46919;45.816;3.104;2022-12-18T03:38:11;98453.06;;;-8.65;100.00
61039;BME280;46919;45.816;3.104;2022-12-18T03:43:20;98460.63;;;-8.75;100.00
61039;BME280;46919;45.816;3.104;2022-12-18T03:46:00;98467.53;;;-8.74;100.00
61039;BME280;46919;45.816;3.104;2022-12-18T03:48:41;98465.09;;;-8.77;100.00
61039;BME280;46919;45.816;3.104;2022-12-18T03:51:17;98461.00;;;-8.81;100.00
61039;BME280;46919;45.816;3.104;2022-12-18T03:53:52;98451.69;;;-8.87;100.00
61039;BME280;46919;45.816;3.104;2022-12-18T03:56:20;98459.66;;;-8.88;100.00
61039;BME280;46919;45.816;3.104;2022-12-18T03:58:48;98468.28;;;-8.86;100.00
61039;BME280;46919;45.816;3.104;2022-12-18T04:01:16;98467.09;;;-8.97;100.00
61039;BME280;46919;45.816;3.104;2022-12-18T04:03:44;98468.28;;;-9.02;100.00
61039;BME280;46919;45.816;3.104;2022-12-18T04:06:11;98468.81;;;-8.96;100.00
61039;BME280;46919;45.816;3.104;2022-12-18T04:08:37;98471.50;;;-8.97;100.00
61039;BME280;46919;45.816;3.104;2022-12-18T04:11:05;98466.94;;;-8.94;100.00
61039;BME280;46919;45.816;3.104;2022-12-18T04:13:36;98477.97;;;-8.88;100.00
61039;BME280;46919;45.816;3.104;2022-12-18T04:16:02;98469.69;;;-8.81;100.00
61039;BME280;46919;45.816;3.104;2022-12-18T04:18:27;98479.25;;;-8.80;100.00
61039;BME280;46919;45.816;3.104;2022-12-18T04:20:53;98473.66;;;-8.73;100.00
61039;BME280;46919;45.816;3.104;2022-12-18T04:23:18;98473.13;;;-8.80;100.00
61039;BME280;46919;45.816;3.104;2022-12-18T04:25:43;98469.25;;;-8.73;100.00
61039;BME280;46919;45.816;3.104;2022-12-18T04:28:09;98473.75;;;-8.75;100.00
61039;BME280;46919;45.816;3.104;2022-12-18T04:30:34;98474.66;;;-8.76;100.00
61039;BME280;46919;45.816;3.104;2022-12-18T04:33:00;98478.03;;;-8.74;100.00
61039;BME280;46919;45.816;3.104;2022-12-18T04:35:25;98469.69;;;-8.81;100.00
61039;BME280;46919;45.816;3.104;2022-12-18T04:37:51;98469.69;;;-8.81;100.00
61039;BME280;46919;45.816;3.104;2022-12-18T04:40:16;98473.75;;;-8.75;100.00
61039;BME280;46919;45.816;3.104;2022-12-18T04:42:42;98476.19;;;-8.72;100.00
61039;BME280;46919;45.816;3.104;2022-12-18T04:45:08;98471.78;;;-8.71;100.00
61039;BME280;46919;45.816;3.104;2022-12-18T04:47:34;98467.97;;;-8.66;100.00
61039;BME280;46919;45.816;3.104;2022-12-18T04:50:00;98468.06;;;-8.67;100.00
61039;BME280;46919;45.816;3.104;2022-12-18T04:52:25;98472.06;;;-8.62;100.00
61039;BME280;46919;45.816;3.104;2022-12-18T04:54:51;98472.00;;;-8.60;100.00
61039;BME280;46919;45.816;3.104;2022-12-18T04:57:16;98469.53;;;-8.63;100.00
61039;BME280;46919;45.816;3.104;2022-12-18T04:59:43;98472.00;;;-8.60;100.00
61039;BME280;46919;45.816;3.104;2022-12-18T05:02:08;98474.34;;;-8.56;100.00
61039;BME280;46919;45.816;3.104;2022-12-18T05:04:34;98485.47;;;-8.52;100.00
61039;BME280;46919;45.816;3.104;2022-12-18T05:06:59;98488.69;;;-8.47;100.00
61039;BME280;46919;45.816;3.104;2022-12-18T05:09:25;98483.13;;;-8.42;100.00
61039;BME280;46919;45.816;3.104;2022-12-18T05:11:50;98493.81;;;-8.45;100.00
61039;BME280;46919;45.816;3.104;2022-12-18T05:14:15;98493.44;;;-8.39;100.00
61039;BME280;46919;45.816;3.104;2022-12-18T05:16:41;98489.34;;;-8.43;100.00
61039;BME280;46919;45.816;3.104;2022-12-18T05:19:06;98493.59;;;-8.42;100.00
61039;BME280;46919;45.816;3.104;2022-12-18T05:21:32;98499.06;;;-8.45;100.00
61039;BME280;46919;45.816;3.104;2022-12-18T05:23:57;98498.59;;;-8.52;100.00
61039;BME280;46919;45.816;3.104;2022-12-18T05:26:22;98497.56;;;-8.49;100.00
61039;BME280;46919;45.816;3.104;2022-12-18T05:28:48;98502.81;;;-8.49;100.00
61039;BME280;46919;45.816;3.104;2022-12-18T05:31:13;98504.69;;;-8.51;100.00
61039;BME280;46919;45.816;3.104;2022-12-18T05:33:39;98508.88;;;-8.49;100.00
61039;BME280;46919;45.816;3.104;2022-12-18T05:36:06;98507.97;;;-8.48;100.00
61039;BME280;46919;45.816;3.104;2022-12-18T05:38:34;98509.53;;;-8.45;100.00
61039;BME280;46919;45.816;3.104;2022-12-18T05:41:00;98503.00;;;-8.52;100.00
61039;BME280;46919;45.816;3.104;2022-12-18T05:43:26;98512.63;;;-8.53;100.00
61039;BME280;46919;45.816;3.104;2022-12-18T05:45:52;98520.00;;;-8.60;100.00
61039;BME280;46919;45.816;3.104;2022-12-18T05:48:18;98525.84;;;-8.54;100.00
61039;BME280;46919;45.816;3.104;2022-12-18T05:50:45;98530.13;;;-8.53;100.00
61039;BME280;46919;45.816;3.104;2022-12-18T05:53:11;98541.28;;;-8.50;100.00
61039;BME280;46919;45.816;3.104;2022-12-18T05:55:39;98537.25;;;-8.41;100.00
61039;BME280;46919;45.816;3.104;2022-12-18T05:58:06;98537.47;;;-8.44;100.00
61039;BME280;46919;45.816;3.104;2022-12-18T06:00:33;98539.88;;;-8.41;100.00
61039;BME280;46919;45.816;3.104;2022-12-18T06:03:00;98543.63;;;-8.45;100.00
61039;BME280;46919;45.816;3.104;2022-12-18T06:05:26;98546.53;;;-8.50;100.00
61039;BME280;46919;45.816;3.104;2022-12-18T06:07:52;98550.91;;;-8.50;100.00
61039;BME280;46919;45.816;3.104;2022-12-18T06:10:17;98559.66;;;-8.50;100.00
61039;BME280;46919;45.816;3.104;2022-12-18T06:12:42;98558.44;;;-8.44;100.00
61039;BME280;46919;45.816;3.104;2022-12-18T06:15:08;98558.44;;;-8.44;100.00
61039;BME280;46919;45.816;3.104;2022-12-18T06:17:34;98568.91;;;-8.44;100.00
61039;BME280;46919;45.816;3.104;2022-12-18T06:20:00;98565.72;;;-8.35;100.00
61039;BME280;46919;45.816;3.104;2022-12-18T06:22:26;98566.47;;;-8.33;100.00
61039;BME280;46919;45.816;3.104;2022-12-18T06:24:51;98568.72;;;-8.41;100.00
61039;BME280;46919;45.816;3.104;2022-12-18T06:27:17;98575.19;;;-8.47;100.00
61039;BME280;46919;45.816;3.104;2022-12-18T06:29:42;98572.66;;;-8.48;100.00
61039;BME280;46919;45.816;3.104;2022-12-18T06:32:08;98569.53;;;-8.41;100.00
61039;BME280;46919;45.816;3.104;2022-12-18T06:34:34;98570.22;;;-8.37;100.00
61039;BME280;46919;45.816;3.104;2022-12-18T06:36:59;98579.59;;;-8.33;100.00
61039;BME280;46919;45.816;3.104;2022-12-18T06:39:27;98580.72;;;-8.37;100.00
61039;BME280;46919;45.816;3.104;2022-12-18T06:41:52;98590.84;;;-8.31;100.00
61039;BME280;46919;45.816;3.104;2022-12-18T06:44:18;98587.66;;;-8.22;100.00
61039;BME280;46919;45.816;3.104;2022-12-18T06:46:43;98583.56;;;-8.26;100.00
61039;BME280;46919;45.816;3.104;2022-12-18T06:49:09;98576.44;;;-8.24;100.00
61039;BME280;46919;45.816;3.104;2022-12-18T06:51:35;98572.13;;;-8.25;100.00
61039;BME280;46919;45.816;3.104;2022-12-18T06:54:00;98574.56;;;-8.22;100.00
61039;BME280;46919;45.816;3.104;2022-12-18T06:56:26;98577.09;;;-8.20;100.00
61039;BME280;46919;45.816;3.104;2022-12-18T06:58:51;98582.69;;;-8.26;100.00
61039;BME280;46919;45.816;3.104;2022-12-18T07:01:17;98583.56;;;-8.26;100.00
61039;BME280;46919;45.816;3.104;2022-12-18T07:03:42;98586.00;;;-8.23;100.00
61039;BME280;46919;45.816;3.104;2022-12-18T07:06:16;98590.47;;;-8.25;100.00
61039;BME280;46919;45.816;3.104;2022-12-18T07:08:42;98593.88;;;-8.23;100.00
61039;BME280;46919;45.816;3.104;2022-12-18T07:11:08;98587.09;;;-8.27;100.00
61039;BME280;46919;45.816;3.104;2022-12-18T07:13:33;98581.84;;;-8.27;100.00
61039;BME280;46919;45.816;3.104;2022-12-18T07:16:16;98580.38;;;-8.31;100.00
61039;BME280;46919;45.816;3.104;2022-12-18T07:18:42;98582.22;;;-8.33;100.00
61039;BME280;46919;45.816;3.104;2022-12-18T07:21:10;98587.38;;;-8.31;100.00
61039;BME280;46919;45.816;3.104;2022-12-18T07:23:36;98594.97;;;-8.27;100.00
61039;BME280;46919;45.816;3.104;2022-12-18T07:26:04;98588.97;;;-8.29;100.00
61039;BME280;46919;45.816;3.104;2022-12-18T07:28:30;98586.84;;;-8.22;100.00
61039;BME280;46919;45.816;3.104;2022-12-18T07:30:55;98587.50;;;-8.19;100.00
61039;BME280;46919;45.816;3.104;2022-12-18T07:33:21;98589.75;;;-8.12;100.00
61039;BME280;46919;45.816;3.104;2022-12-18T07:35:46;98589.50;;;-7.93;100.00
61039;BME280;46919;45.816;3.104;2022-12-18T07:38:11;98584.28;;;-7.79;100.00
61039;BME280;46919;45.816;3.104;2022-12-18T07:40:37;98585.25;;;-7.80;100.00
61039;BME280;46919;45.816;3.104;2022-12-18T07:43:02;98587.59;;;-7.75;100.00
61039;BME280;46919;45.816;3.104;2022-12-18T07:45:28;98583.19;;;-7.75;100.00
61039;BME280;46919;45.816;3.104;2022-12-18T07:47:56;98584.00;;;-7.74;100.00
61039;BME280;46919;45.816;3.104;2022-12-18T07:50:21;98585.53;;;-7.70;100.00
61039;BME280;46919;45.816;3.104;2022-12-18T07:52:47;98582.53;;;-7.64;100.00
61039;BME280;46919;45.816;3.104;2022-12-18T07:55:12;98569.41;;;-7.64;100.00
61039;BME280;46919;45.816;3.104;2022-12-18T07:57:37;98570.88;;;-7.60;100.00
61039;BME280;46919;45.816;3.104;2022-12-18T08:00:03;98570.31;;;-7.51;100.00
61039;BME280;46919;45.816;3.104;2022-12-18T08:02:30;98573.50;;;-7.46;100.00
61039;BME280;46919;45.816;3.104;2022-12-18T08:04:56;98580.47;;;-7.44;100.00
61039;BME280;46919;45.816;3.104;2022-12-18T08:07:22;98580.81;;;-7.36;100.00
61039;BME280;46919;45.816;3.104;2022-12-18T08:09:47;98572.00;;;-7.21;100.00
61039;BME280;46919;45.816;3.104;2022-12-18T08:12:12;98574.06;;;-7.12;100.00
61039;BME280;46919;45.816;3.104;2022-12-18T08:14:38;98574.50;;;-7.05;100.00
61039;BME280;46919;45.816;3.104;2022-12-18T08:17:03;98568.03;;;-6.99;100.00
61039;BME280;46919;45.816;3.104;2022-12-18T08:19:28;98576.91;;;-6.87;100.00
61039;BME280;46919;45.816;3.104;2022-12-18T08:21:54;98578.09;;;-6.79;100.00
61039;BME280;46919;45.816;3.104;2022-12-18T08:24:19;98587.25;;;-6.71;100.00
61039;BME280;46919;45.816;3.104;2022-12-18T08:26:45;98586.78;;;-6.64;100.00
61039;BME280;46919;45.816;3.104;2022-12-18T08:29:10;98587.13;;;-6.56;100.00
61039;BME280;46919;45.816;3.104;2022-12-18T08:31:36;98578.63;;;-6.46;100.00
61039;BME280;46919;45.816;3.104;2022-12-18T08:34:02;98593.13;;;-6.26;100.00
61039;BME280;46919;45.816;3.104;2022-12-18T08:36:27;98587.31;;;-6.19;100.00
61039;BME280;46919;45.816;3.104;2022-12-18T08:38:53;98586.91;;;-6.12;100.00
61039;BME280;46919;45.816;3.104;2022-12-18T08:41:19;98585.56;;;-6.05;100.00
61039;BME280;46919;45.816;3.104;2022-12-18T08:43:45;98589.56;;;-5.99;100.00
61039;BME280;46919;45.816;3.104;2022-12-18T08:46:35;98597.47;;;-5.87;100.00
61039;BME280;46919;45.816;3.104;2022-12-18T08:49:01;98592.41;;;-5.77;100.00
61039;BME280;46919;45.816;3.104;2022-12-18T08:51:27;98594.09;;;-5.63;100.00
61039;BME280;46919;45.816;3.104;2022-12-18T08:53:52;98594.13;;;-5.50;100.00
61039;BME280;46919;45.816;3.104;2022-12-18T08:56:17;98599.56;;;-5.40;100.00
61039;BME280;46919;45.816;3.104;2022-12-18T08:58:43;98595.03;;;-5.25;100.00
61039;BME280;46919;45.816;3.104;2022-12-18T09:01:10;98596.69;;;-5.12;100.00
61039;BME280;46919;45.816;3.104;2022-12-18T09:03:36;98601.81;;;-4.97;100.00
61039;BME280;46919;45.816;3.104;2022-12-18T09:06:02;98600.09;;;-4.85;100.00
61039;BME280;46919;45.816;3.104;2022-12-18T09:08:27;98600.31;;;-4.76;100.00
61039;BME280;46919;45.816;3.104;2022-12-18T09:10:53;98610.91;;;-4.64;100.00
61039;BME280;46919;45.816;3.104;2022-12-18T09:13:18;98610.38;;;-4.57;100.00
61039;BME280;46919;45.816;3.104;2022-12-18T09:15:46;98611.59;;;-4.49;100.00
61039;BME280;46919;45.816;3.104;2022-12-18T09:18:13;98608.28;;;-4.40;100.00
61039;BME280;46919;45.816;3.104;2022-12-18T09:20:39;98609.78;;;-4.25;100.00
61039;BME280;46919;45.816;3.104;2022-12-18T09:23:05;98607.91;;;-4.11;100.00
61039;BME280;46919;45.816;3.104;2022-12-18T09:25:32;98612.88;;;-3.95;100.00
61039;BME280;46919;45.816;3.104;2022-12-18T09:28:18;98607.78;;;-3.74;100.00
61039;BME280;46919;45.816;3.104;2022-12-18T09:30:46;98604.94;;;-3.60;100.00
61039;BME280;46919;45.816;3.104;2022-12-18T09:33:12;98608.06;;;-3.55;100.00
61039;BME280;46919;45.816;3.104;2022-12-18T09:35:38;98610.59;;;-3.53;100.00
61039;BME280;46919;45.816;3.104;2022-12-18T09:38:04;98610.97;;;-3.47;100.00
61039;BME280;46919;45.816;3.104;2022-12-18T09:40:41;98611.56;;;-3.32;100.00
61039;BME280;46919;45.816;3.104;2022-12-18T09:43:15;98603.78;;;-3.22;100.00
61039;BME280;46919;45.816;3.104;2022-12-18T09:45:46;98605.94;;;-3.16;100.00
61039;BME280;46919;45.816;3.104;2022-12-18T09:48:20;98600.91;;;-3.07;100.00
61039;BME280;46919;45.816;3.104;2022-12-18T09:50:48;98601.97;;;-2.99;100.00
61039;BME280;46919;45.816;3.104;2022-12-18T09:53:24;98596.06;;;-2.91;100.00
61039;BME280;46919;45.816;3.104;2022-12-18T09:55:52;98592.22;;;-2.87;100.00
61039;BME280;46919;45.816;3.104;2022-12-18T09:58:36;98595.94;;;-2.78;100.00
61039;BME280;46919;45.816;3.104;2022-12-18T10:01:15;98588.09;;;-2.68;100.00
61039;BME280;46919;45.816;3.104;2022-12-18T10:03:43;98585.53;;;-2.59;100.00
61039;BME280;46919;45.816;3.104;2022-12-18T10:06:11;98588.06;;;-2.46;100.00
61039;BME280;46919;45.816;3.104;2022-12-18T10:08:51;98580.66;;;-2.31;100.00
61039;BME280;46919;45.816;3.104;2022-12-18T10:11:26;98580.09;;;-2.13;100.00
61039;BME280;46919;45.816;3.104;2022-12-18T10:14:30;98574.50;;;-1.99;100.00
61039;BME280;46919;45.816;3.104;2022-12-18T10:19:52;98560.91;;;-1.85;100.00
61039;BME280;46919;45.816;3.104;2022-12-18T10:28:07;98561.31;;;-1.37;100.00
61039;BME280;46919;45.816;3.104;2022-12-18T10:30:34;98557.91;;;-1.18;100.00
61039;BME280;46919;45.816;3.104;2022-12-18T10:33:01;98560.03;;;-1.12;100.00
61039;BME280;46919;45.816;3.104;2022-12-18T10:35:27;98552.50;;;-1.07;100.00
61039;BME280;46919;45.816;3.104;2022-12-18T10:38:05;98554.38;;;-0.98;100.00
61039;BME280;46919;45.816;3.104;2022-12-18T10:40:31;98551.88;;;-0.89;100.00
61039;BME280;46919;45.816;3.104;2022-12-18T10:43:11;98551.06;;;-0.70;100.00
61039;BME280;46919;45.816;3.104;2022-12-18T10:45:37;98536.16;;;-0.52;100.00
61039;BME280;46919;45.816;3.104;2022-12-18T10:48:03;98545.94;;;-0.33;100.00
61039;BME280;46919;45.816;3.104;2022-12-18T10:50:33;98550.72;;;-0.27;100.00
61039;BME280;46919;45.816;3.104;2022-12-18T10:53:00;98545.66;;;-0.20;100.00
61039;BME280;46919;45.816;3.104;2022-12-18T10:55:34;98551.81;;;-0.20;100.00
61039;BME280;46919;45.816;3.104;2022-12-18T10:58:23;98549.84;;;-0.17;100.00
61039;BME280;46919;45.816;3.104;2022-12-18T11:01:05;98550.69;;;-0.07;100.00
61039;BME280;46919;45.816;3.104;2022-12-18T11:06:14;98555.81;;;0.24;100.00
61039;BME280;46919;45.816;3.104;2022-12-18T11:08:42;98555.53;;;0.46;100.00
61039;BME280;46919;45.816;3.104;2022-12-18T11:11:19;98549.72;;;0.61;100.00
61039;BME280;46919;45.816;3.104;2022-12-18T11:14:02;98542.69;;;0.69;100.00
61039;BME280;46919;45.816;3.104;2022-12-18T11:16:32;98543.25;;;0.73;100.00
61039;BME280;46919;45.816;3.104;2022-12-18T11:19:21;98528.56;;;0.97;100.00
61039;BME280;46919;45.816;3.104;2022-12-18T11:21:50;98527.94;;;1.13;99.92
61039;BME280;46919;45.816;3.104;2022-12-18T11:24:27;98521.59;;;1.14;100.00
61039;BME280;46919;45.816;3.104;2022-12-18T11:26:54;98525.00;;;1.34;100.00
61039;BME280;46919;45.816;3.104;2022-12-18T11:29:27;98515.66;;;1.48;99.03
61039;BME280;46919;45.816;3.104;2022-12-18T11:32:22;98520.31;;;1.63;98.30
61039;BME280;46919;45.816;3.104;2022-12-18T11:34:55;98509.88;;;1.70;98.38
61039;BME280;46919;45.816;3.104;2022-12-18T11:37:23;98505.69;;;1.86;98.43
61039;BME280;46919;45.816;3.104;2022-12-18T11:39:52;98500.72;;;1.91;98.29
61039;BME280;46919;45.816;3.104;2022-12-18T11:42:28;98504.50;;;2.06;97.77
61039;BME280;46919;45.816;3.104;2022-12-18T11:50:24;98491.06;;;2.77;94.58
61039;BME280;46919;45.816;3.104;2022-12-18T11:52:50;98483.81;;;2.95;93.45
61039;BME280;46919;45.816;3.104;2022-12-18T11:55:30;98484.16;;;3.00;93.01
61039;BME280;46919;45.816;3.104;2022-12-18T11:58:40;98489.50;;;3.08;91.71
61039;BME280;46919;45.816;3.104;2022-12-18T12:04:36;98480.41;;;3.36;90.26
61039;BME280;46919;45.816;3.104;2022-12-18T12:21:02;98463.56;;;3.85;87.21
61039;BME280;46919;45.816;3.104;2022-12-18T12:26:26;98459.03;;;4.18;84.37
61039;BME280;46919;45.816;3.104;2022-12-18T12:29:01;98447.16;;;4.21;84.48
61039;BME280;46919;45.816;3.104;2022-12-18T12:31:53;98452.00;;;4.25;84.14
61039;BME280;46919;45.816;3.104;2022-12-18T12:34:22;98449.94;;;4.35;83.40
61039;BME280;46919;45.816;3.104;2022-12-18T12:39:56;98425.59;;;4.70;82.06
61039;BME280;46919;45.816;3.104;2022-12-18T12:42:33;98423.53;;;4.80;82.24
61039;BME280;46919;45.816;3.104;2022-12-18T12:45:26;98414.72;;;5.03;81.96
61039;BME280;46919;45.816;3.104;2022-12-18T12:47:54;98418.66;;;5.38;80.88
61039;BME280;46919;45.816;3.104;2022-12-18T12:50:21;98419.50;;;5.62;80.07
61039;BME280;46919;45.816;3.104;2022-12-18T12:52:51;98409.22;;;5.89;79.70
61039;BME280;46919;45.816;3.104;2022-12-18T12:55:26;98419.00;;;6.20;79.20
61039;BME280;46919;45.816;3.104;2022-12-18T12:58:05;98416.03;;;6.59;77.69
61039;BME280;46919;45.816;3.104;2022-12-18T13:00:52;98426.91;;;7.02;77.14
61039;BME280;46919;45.816;3.104;2022-12-18T13:03:35;98416.06;;;7.32;76.39
61039;BME280;46919;45.816;3.104;2022-12-18T13:06:23;98417.94;;;7.53;75.45
61039;BME280;46919;45.816;3.104;2022-12-18T13:08:56;98413.84;;;7.79;74.19
61039;BME280;46919;45.816;3.104;2022-12-18T13:11:42;98404.34;;;8.11;70.97
61039;BME280;46919;45.816;3.104;2022-12-18T13:14:35;98401.19;;;8.01;71.86
61039;BME280;46919;45.816;3.104;2022-12-18T13:19:52;98404.75;;;7.58;73.95
61039;BME280;46919;45.816;3.104;2022-12-18T13:22:34;98399.81;;;7.62;71.93
61039;BME280;46919;45.816;3.104;2022-12-18T13:25:00;98403.03;;;7.51;70.85
61039;BME280;46919;45.816;3.104;2022-12-18T13:41:02;98394.44;;;7.19;72.51
61039;BME280;46919;45.816;3.104;2022-12-18T13:43:31;98374.34;;;7.36;71.31
61039;BME280;46919;45.816;3.104;2022-12-18T13:46:28;98364.75;;;7.49;71.01
61039;BME280;46919;45.816;3.104;2022-12-18T13:49:05;98372.53;;;7.65;70.36
61039;BME280;46919;45.816;3.104;2022-12-18T13:51:33;98368.13;;;7.86;69.30
61039;BME280;46919;45.816;3.104;2022-12-18T13:54:11;98378.94;;;7.92;69.88
61039;BME280;46919;45.816;3.104;2022-12-18T13:56:44;98384.72;;;7.89;70.11
61039;BME280;46919;45.816;3.104;2022-12-18T14:01:43;98385.50;;;7.83;68.51
61039;BME280;46919;45.816;3.104;2022-12-18T14:04:20;98379.09;;;7.84;68.51
61039;BME280;46919;45.816;3.104;2022-12-18T14:06:47;98384.03;;;7.80;68.93
61039;BME280;46919;45.816;3.104;2022-12-18T14:09:15;98383.84;;;7.82;68.26
61039;BME280;46919;45.816;3.104;2022-12-18T14:11:47;98389.28;;;7.89;67.59
61039;BME280;46919;45.816;3.104;2022-12-18T14:14:17;98395.03;;;7.86;68.18
61039;BME280;46919;45.816;3.104;2022-12-18T14:16:43;98400.38;;;7.79;69.09